Time;durP1;ratioP1;P1;durP2;ratioP2;P2;SDS_P1;SDS_P2;PMS_P1;PMS_P2;Temp;Humidity;BMP_temperature;BMP_pressure;BME280_temperature;BME280_humidity;BME280_pressure;Samples;Min_cycle;Max_cycle;Signal;HPM_P1;HPM_P2
2023/08/28 00:01:20;;;;;;;1.90;0.70;;;;;;;;;;5046654;28;20049;-63
2023/08/28 00:05:02;;;;;;;0.82;0.55;;;;;;;;;;5034263;28;20098;-64
2023/08/28 00:08:43;;;;;;;3.05;0.60;;;;;;;;;;5038145;28;20094;-62
2023/08/28 00:12:23;;;;;;;0.63;0.50;;;;;;;;;;5048460;28;20289;-63
2023/08/28 00:16:03;;;;;;;1.67;0.60;;;;;;;;;;5046500;28;20727;-62
2023/08/28 00:19:44;;;;;;;0.90;0.60;;;;;;;;;;5049161;28;20501;-63
2023/08/28 00:23:24;;;;;;;1.73;0.50;;;;;;;;;;5041608;28;20109;-63
2023/08/28 00:27:05;;;;;;;1.17;0.47;;;;;;;;;;5046883;28;20041;-63
2023/08/28 00:30:11;;;;;;;1.67;0.70;;;;;;;;;;5044852;28;20508;-63
2023/08/28 00:32:38;;;;;;;1.02;0.50;;;;;;;;;;5026850;28;20098;-64
2023/08/28 00:35:05;;;;;;;3.13;0.80;;;;;;;;;;5052319;28;20033;-64
2023/08/28 00:38:12;;;;;;;0.60;0.50;;;;;;;;;;5032676;28;20060;-63
2023/08/28 00:41:53;;;;;;;0.80;0.50;;;;;;;;;;5048740;28;20041;-62
2023/08/28 00:45:34;;;;;;;2.17;0.60;;;;;;;;;;5039997;28;20049;-63
2023/08/28 00:49:16;;;;;;;2.30;0.63;;;;;;;;;;5047760;28;20045;-63
2023/08/28 00:52:56;;;;;;;1.60;0.70;;;;;;;;;;5048900;28;20041;-62
2023/08/28 00:56:36;;;;;;;0.57;0.55;;;;;;;;;;5032566;28;20049;-62
2023/08/28 01:00:18;;;;;;;2.60;0.75;;;;;;;;;;5044269;28;20045;-63
2023/08/28 01:03:58;;;;;;;1.08;0.63;;;;;;;;;;5047496;28;20049;-64
2023/08/28 01:07:02;;;;;;;0.80;0.45;;;;;;;;;;5048824;28;20044;-64
2023/08/28 01:10:51;;;;;;;1.67;0.70;;;;;;;;;;5050459;28;20049;-63
2023/08/28 01:14:11;;;;;;;2.60;0.80;;;;;;;;;;5044088;28;20514;-63
2023/08/28 01:17:54;;;;;;;2.58;0.73;;;;;;;;;;5048103;28;20049;-62
2023/08/28 01:21:33;;;;;;;1.33;0.60;;;;;;;;;;5026188;28;20059;-62
2023/08/28 01:25:30;;;;;;;0.38;0.38;;;;;;;;;;5024109;28;20490;-63
2023/08/28 01:29:10;;;;;;;1.02;0.60;;;;;;;;;;5029334;28;20060;-64
2023/08/28 01:32:50;;;;;;;1.08;0.50;;;;;;;;;;5018234;28;20053;-62
2023/08/28 01:36:31;;;;;;;2.53;0.43;;;;;;;;;;5023004;28;20038;-64
2023/08/28 01:40:11;;;;;;;1.05;0.52;;;;;;;;;;5023679;28;20037;-64
2023/08/28 01:43:52;;;;;;;0.90;0.50;;;;;;;;;;5025429;28;20062;-64
2023/08/28 01:47:32;;;;;;;1.23;0.55;;;;;;;;;;5021597;28;20477;-63
2023/08/28 01:51:12;;;;;;;1.63;0.60;;;;;;;;;;5028671;28;20049;-62
2023/08/28 01:54:53;;;;;;;0.60;0.50;;;;;;;;;;5025543;28;20654;-66
2023/08/28 01:58:33;;;;;;;1.42;0.70;;;;;;;;;;5027809;28;20080;-62
2023/08/28 02:02:16;;;;;;;1.23;0.73;;;;;;;;;;5025831;28;20099;-63
2023/08/28 02:05:58;;;;;;;2.55;0.60;;;;;;;;;;5022287;28;20041;-63
2023/08/28 02:09:38;;;;;;;1.30;0.65;;;;;;;;;;5028157;28;20100;-64
2023/08/28 02:13:20;;;;;;;2.17;0.98;;;;;;;;;;5017105;28;20049;-62
2023/08/28 02:17:00;;;;;;;3.85;1.60;;;;;;;;;;5021307;28;20049;-61
2023/08/28 02:20:40;;;;;;;2.38;1.80;;;;;;;;;;5040101;28;20052;-61
2023/08/28 02:24:23;;;;;;;5.65;2.50;;;;;;;;;;5040845;28;20546;-62
2023/08/28 02:28:03;;;;;;;3.55;2.08;;;;;;;;;;5033712;28;20056;-64
2023/08/28 02:31:04;;;;;;;2.22;1.27;;;;;;;;;;5044321;28;20075;-61
2023/08/28 02:33:31;;;;;;;4.03;0.90;;;;;;;;;;5042132;28;20059;-63
2023/08/28 02:36:00;;;;;;;3.30;1.00;;;;;;;;;;5048411;28;20049;-64
2023/08/28 02:38:26;;;;;;;2.20;1.00;;;;;;;;;;5041714;28;20045;-64
2023/08/28 02:41:01;;;;;;;2.38;0.90;;;;;;;;;;5046740;28;20056;-62
2023/08/28 02:43:27;;;;;;;2.20;0.90;;;;;;;;;;5045263;28;20053;-62
2023/08/28 02:45:53;;;;;;;2.72;1.33;;;;;;;;;;5030607;28;20043;-62
2023/08/28 02:48:19;;;;;;;2.58;1.00;;;;;;;;;;5047133;28;20071;-63
2023/08/28 02:50:50;;;;;;;2.80;0.90;;;;;;;;;;5049386;28;20037;-64
2023/08/28 02:53:16;;;;;;;2.53;0.90;;;;;;;;;;5047635;28;20062;-62
2023/08/28 02:56:10;;;;;;;2.97;1.00;;;;;;;;;;5042772;28;20045;-63
2023/08/28 02:58:38;;;;;;;2.35;0.90;;;;;;;;;;5044901;28;20120;-62
2023/08/28 03:01:04;;;;;;;1.45;0.80;;;;;;;;;;5049398;28;20491;-64
2023/08/28 03:03:33;;;;;;;2.95;0.80;;;;;;;;;;5028806;28;20092;-64
2023/08/28 03:06:01;;;;;;;2.88;0.68;;;;;;;;;;5049298;28;20049;-63
2023/08/28 03:08:30;;;;;;;3.90;1.23;;;;;;;;;;5049452;28;20041;-64
2023/08/28 03:10:56;;;;;;;1.88;1.00;;;;;;;;;;5043362;28;20044;-64
2023/08/28 03:13:23;;;;;;;2.72;1.13;;;;;;;;;;5042603;28;20067;-63
2023/08/28 03:15:48;;;;;;;2.17;0.93;;;;;;;;;;5049217;28;20116;-63
2023/08/28 03:18:15;;;;;;;3.72;1.10;;;;;;;;;;5048801;28;20049;-62
2023/08/28 03:20:41;;;;;;;3.28;1.20;;;;;;;;;;5045890;28;20065;-63
2023/08/28 03:23:12;;;;;;;1.33;1.10;;;;;;;;;;5045825;28;20098;-62
2023/08/28 03:25:38;;;;;;;4.00;1.15;;;;;;;;;;5048797;28;20045;-62
2023/08/28 03:28:08;;;;;;;2.65;1.45;;;;;;;;;;5045133;28;20052;-64
2023/08/28 03:30:34;;;;;;;2.28;1.20;;;;;;;;;;5043704;28;20059;-64
2023/08/28 03:33:01;;;;;;;2.78;1.10;;;;;;;;;;5047751;28;20072;-62
2023/08/28 03:35:29;;;;;;;4.93;1.30;;;;;;;;;;5025439;28;20068;-65
2023/08/28 03:37:55;;;;;;;4.22;1.60;;;;;;;;;;5041981;28;20044;-63
2023/08/28 03:40:21;;;;;;;4.25;1.52;;;;;;;;;;5012009;28;20602;-63
2023/08/28 03:42:47;;;;;;;6.25;1.80;;;;;;;;;;5026018;28;20495;-64
2023/08/28 03:45:18;;;;;;;5.22;1.70;;;;;;;;;;5026215;28;20049;-62
2023/08/28 03:47:44;;;;;;;3.00;1.55;;;;;;;;;;5043149;28;20500;-62
2023/08/28 03:50:10;;;;;;;1.83;1.10;;;;;;;;;;5045473;28;20045;-62
2023/08/28 03:52:39;;;;;;;3.20;0.88;;;;;;;;;;5011771;28;20508;-62
2023/08/28 03:55:06;;;;;;;3.03;0.95;;;;;;;;;;5044569;28;20079;-63
2023/08/28 03:57:34;;;;;;;4.03;0.98;;;;;;;;;;5025915;28;20489;-62
2023/08/28 04:00:04;;;;;;;1.80;0.70;;;;;;;;;;5027088;28;20056;-63
2023/08/28 04:02:30;;;;;;;2.90;0.80;;;;;;;;;;5043310;28;20057;-61
2023/08/28 04:04:56;;;;;;;3.80;0.70;;;;;;;;;;5036698;28;20049;-66
2023/08/28 04:07:24;;;;;;;1.83;0.75;;;;;;;;;;5046785;28;20068;-63
2023/08/28 04:09:50;;;;;;;2.63;0.80;;;;;;;;;;5045610;28;20057;-62
2023/08/28 04:12:16;;;;;;;3.30;0.77;;;;;;;;;;5047787;28;20041;-62
2023/08/28 04:14:42;;;;;;;1.33;0.70;;;;;;;;;;5045940;28;20049;-61
2023/08/28 04:17:08;;;;;;;2.70;0.98;;;;;;;;;;5045221;28;20056;-62
2023/08/28 04:19:35;;;;;;;1.80;0.88;;;;;;;;;;5027754;28;20118;-62
2023/08/28 04:22:09;;;;;;;2.38;1.10;;;;;;;;;;5042144;28;20057;-61
2023/08/28 04:24:38;;;;;;;2.20;0.80;;;;;;;;;;5048392;28;20045;-61
2023/08/28 04:27:08;;;;;;;4.18;0.77;;;;;;;;;;5023025;28;20050;-63
2023/08/28 04:29:34;;;;;;;2.70;0.90;;;;;;;;;;5043304;28;20547;-63
2023/08/28 04:32:00;;;;;;;1.77;0.80;;;;;;;;;;5041417;28;20519;-64
2023/08/28 04:34:28;;;;;;;1.05;0.80;;;;;;;;;;5041714;28;20041;-63
2023/08/28 04:36:54;;;;;;;2.03;1.00;;;;;;;;;;5039562;28;20103;-63
2023/08/28 04:39:22;;;;;;;2.33;1.00;;;;;;;;;;5035942;28;20439;-63
2023/08/28 04:41:50;;;;;;;2.25;0.88;;;;;;;;;;5023704;28;20053;-63
2023/08/28 04:44:15;;;;;;;3.95;1.00;;;;;;;;;;5047912;28;20102;-63
2023/08/28 04:46:43;;;;;;;2.83;1.05;;;;;;;;;;5041939;28;20079;-63
2023/08/28 04:49:10;;;;;;;5.57;1.05;;;;;;;;;;5044974;28;20560;-63
2023/08/28 04:51:39;;;;;;;11.48;1.15;;;;;;;;;;5044844;28;20048;-63
2023/08/28 04:54:05;;;;;;;4.78;1.00;;;;;;;;;;5050864;28;20041;-63
2023/08/28 04:56:31;;;;;;;5.25;1.30;;;;;;;;;;5044955;28;20049;-62
2023/08/28 04:58:58;;;;;;;4.05;1.00;;;;;;;;;;5051160;28;20123;-61
2023/08/28 05:01:24;;;;;;;4.32;0.98;;;;;;;;;;5052654;28;20040;-63
2023/08/28 05:03:51;;;;;;;4.78;1.50;;;;;;;;;;5047915;28;20050;-62
2023/08/28 05:06:17;;;;;;;2.33;0.82;;;;;;;;;;5051879;28;20037;-63
2023/08/28 05:08:43;;;;;;;4.05;1.08;;;;;;;;;;5052065;28;20478;-63
2023/08/28 05:11:10;;;;;;;2.63;1.05;;;;;;;;;;5030106;28;20056;-64
2023/08/28 05:13:37;;;;;;;4.00;1.10;;;;;;;;;;5043143;28;20056;-57
2023/08/28 05:16:05;;;;;;;4.20;1.13;;;;;;;;;;5041952;28;20045;-60
2023/08/28 05:18:31;;;;;;;4.70;1.13;;;;;;;;;;5040077;28;20416;-60
2023/08/28 05:20:57;;;;;;;4.07;1.08;;;;;;;;;;5047992;28;20056;-61
2023/08/28 05:23:26;;;;;;;3.05;0.90;;;;;;;;;;5046616;28;20048;-60
2023/08/28 05:25:54;;;;;;;2.40;1.00;;;;;;;;;;5048516;28;20561;-60
2023/08/28 05:28:59;;;;;;;2.55;0.95;;;;;;;;;;5037361;28;20049;-60
2023/08/28 05:32:40;;;;;;;1.02;0.73;;;;;;;;;;5042037;28;20466;-62
2023/08/28 05:36:20;;;;;;;2.42;1.02;;;;;;;;;;5044170;28;20053;-62
2023/08/28 05:40:00;;;;;;;1.63;0.95;;;;;;;;;;5046766;28;20712;-61
2023/08/28 05:43:41;;;;;;;2.53;1.00;;;;;;;;;;5048365;28;20045;-61
2023/08/28 05:47:21;;;;;;;2.65;0.90;;;;;;;;;;5038139;28;20492;-64
2023/08/28 05:51:04;;;;;;;2.08;0.65;;;;;;;;;;5035801;28;20045;-60
2023/08/28 05:54:44;;;;;;;3.25;0.88;;;;;;;;;;5039467;28;20065;-57
2023/08/28 05:58:25;;;;;;;2.35;1.00;;;;;;;;;;5036400;28;21213;-60
2023/08/28 06:02:06;;;;;;;2.08;0.80;;;;;;;;;;5037904;28;20076;-58
2023/08/28 06:05:46;;;;;;;2.92;1.20;;;;;;;;;;5037757;28;20751;-59
2023/08/28 06:09:27;;;;;;;4.28;1.20;;;;;;;;;;5039706;28;20049;-61
2023/08/28 06:13:07;;;;;;;5.50;1.48;;;;;;;;;;5034970;28;20053;-59
2023/08/28 06:16:47;;;;;;;4.30;1.52;;;;;;;;;;5041096;28;20201;-60
2023/08/28 06:20:28;;;;;;;4.72;1.20;;;;;;;;;;5037689;28;20508;-61
2023/08/28 06:24:09;;;;;;;5.22;1.00;;;;;;;;;;5036168;28;20452;-61
2023/08/28 06:27:49;;;;;;;2.88;1.20;;;;;;;;;;5039520;28;20092;-59
2023/08/28 06:31:29;;;;;;;6.70;1.65;;;;;;;;;;5040940;28;20063;-60
2023/08/28 06:35:09;;;;;;;5.93;1.55;;;;;;;;;;5039758;28;20049;-62
2023/08/28 06:38:52;;;;;;;6.82;1.90;;;;;;;;;;5039776;28;20293;-60
2023/08/28 06:42:30;;;;;;;3.38;1.58;;;;;;;;;;5038380;28;20049;-60
2023/08/28 06:46:10;;;;;;;3.80;1.70;;;;;;;;;;5035892;28;20273;-59
2023/08/28 06:49:51;;;;;;;5.45;1.60;;;;;;;;;;5035018;28;20084;-59
2023/08/28 06:53:31;;;;;;;8.10;1.92;;;;;;;;;;5037143;28;20060;-60
2023/08/28 06:57:11;;;;;;;4.97;1.88;;;;;;;;;;5037717;28;20369;-61
2023/08/28 07:00:52;;;;;;;4.60;1.70;;;;;;;;;;5034098;28;20499;-62
2023/08/28 07:04:32;;;;;;;9.90;1.83;;;;;;;;;;5035983;28;20077;-61
2023/08/28 07:08:12;;;;;;;7.78;2.00;;;;;;;;;;5036761;28;20511;-60
2023/08/28 07:11:54;;;;;;;5.15;1.65;;;;;;;;;;5040380;28;20077;-65
2023/08/28 07:15:13;;;;;;;3.42;1.10;;;;;;;;;;5033302;28;20045;-61
2023/08/28 07:18:53;;;;;;;2.58;1.20;;;;;;;;;;5035713;28;20061;-60
2023/08/28 07:21:59;;;;;;;5.43;1.50;;;;;;;;;;5036458;28;20062;-62
2023/08/28 07:25:05;;;;;;;4.65;1.00;;;;;;;;;;5034003;28;20045;-64
2023/08/28 07:28:48;;;;;;;4.10;1.30;;;;;;;;;;5036649;28;20095;-62
2023/08/28 07:32:28;;;;;;;2.90;0.90;;;;;;;;;;5037514;28;20363;-59
2023/08/28 07:35:47;;;;;;;3.13;0.90;;;;;;;;;;5037340;28;20037;-63
2023/08/28 07:38:14;;;;;;;4.57;1.08;;;;;;;;;;5041638;28;20060;-62
2023/08/28 07:41:20;;;;;;;3.17;0.98;;;;;;;;;;5036932;28;20072;-61
2023/08/28 07:45:00;;;;;;;1.55;0.80;;;;;;;;;;5040200;28;20118;-64
2023/08/28 07:48:41;;;;;;;2.10;1.10;;;;;;;;;;5031182;28;20527;-61
2023/08/28 07:52:21;;;;;;;2.28;0.90;;;;;;;;;;5041861;28;20076;-62
2023/08/28 07:56:03;;;;;;;3.38;1.00;;;;;;;;;;5040024;28;20064;-60
2023/08/28 07:59:43;;;;;;;2.80;0.93;;;;;;;;;;5040817;28;20056;-61
2023/08/28 08:03:23;;;;;;;4.47;0.95;;;;;;;;;;5037447;28;20056;-61
2023/08/28 08:07:04;;;;;;;3.95;1.05;;;;;;;;;;5034591;28;20559;-62
2023/08/28 08:10:45;;;;;;;1.67;0.90;;;;;;;;;;5038124;28;20491;-61
2023/08/28 08:14:26;;;;;;;4.13;0.70;;;;;;;;;;5038483;28;20049;-61
2023/08/28 08:18:06;;;;;;;1.40;1.00;;;;;;;;;;5032920;28;20049;-61
2023/08/28 08:21:46;;;;;;;2.95;1.30;;;;;;;;;;5034434;28;20072;-61
2023/08/28 08:25:28;;;;;;;5.38;1.13;;;;;;;;;;5037709;28;20053;-61
2023/08/28 08:29:08;;;;;;;1.92;1.00;;;;;;;;;;5041799;28;20336;-61
2023/08/28 08:32:50;;;;;;;2.00;0.70;;;;;;;;;;5042407;28;20311;-61
2023/08/28 08:36:30;;;;;;;1.70;0.65;;;;;;;;;;5041011;28;20056;-58
2023/08/28 08:40:12;;;;;;;2.15;1.00;;;;;;;;;;5042113;28;20049;-61
2023/08/28 08:43:55;;;;;;;4.78;1.00;;;;;;;;;;5034708;28;20053;-59
2023/08/28 08:47:35;;;;;;;2.67;1.05;;;;;;;;;;5041750;28;20183;-60
2023/08/28 08:51:15;;;;;;;2.83;1.08;;;;;;;;;;5042960;28;20619;-62
2023/08/28 08:54:59;;;;;;;4.47;1.00;;;;;;;;;;5040450;28;20047;-63
2023/08/28 08:58:39;;;;;;;1.30;0.75;;;;;;;;;;5050807;28;20111;-62
2023/08/28 09:02:21;;;;;;;4.47;1.33;;;;;;;;;;5047104;28;20095;-60
2023/08/28 09:06:00;;;;;;;3.28;1.15;;;;;;;;;;5042457;28;20120;-61
2023/08/28 09:09:40;;;;;;;7.18;1.10;;;;;;;;;;5029819;28;20057;-61
2023/08/28 09:13:21;;;;;;;2.90;0.93;;;;;;;;;;5043143;28;20458;-59
2023/08/28 09:17:01;;;;;;;4.22;1.85;;;;;;;;;;5035774;28;20126;-61
2023/08/28 09:20:49;;;;;;;3.05;1.13;;;;;;;;;;5040460;28;20424;-63
2023/08/28 09:24:29;;;;;;;1.45;0.88;;;;;;;;;;5034213;28;20088;-61
2023/08/28 09:28:10;;;;;;;5.07;0.90;;;;;;;;;;5037432;28;20072;-63
2023/08/28 09:31:51;;;;;;;2.75;1.02;;;;;;;;;;5040474;28;20085;-62
2023/08/28 09:35:30;;;;;;;2.20;1.00;;;;;;;;;;5039757;28;20068;-60
2023/08/28 09:39:12;;;;;;;1.20;0.65;;;;;;;;;;5037453;28;20513;-62
2023/08/28 09:42:39;;;;;;;3.00;0.80;;;;;;;;;;5038631;28;20049;-62
2023/08/28 09:45:07;;;;;;;6.10;0.70;;;;;;;;;;5024780;28;20074;-60
2023/08/28 09:47:35;;;;;;;1.80;0.70;;;;;;;;;;5038508;28;20091;-60
2023/08/28 09:50:04;;;;;;;2.33;0.70;;;;;;;;;;5043562;28;20073;-63
2023/08/28 09:52:30;;;;;;;9.25;0.63;;;;;;;;;;5048314;28;20515;-61
2023/08/28 09:55:04;;;;;;;1.88;0.60;;;;;;;;;;5043482;28;20263;-62
2023/08/28 09:57:31;;;;;;;2.30;0.60;;;;;;;;;;5045438;28;20045;-62
2023/08/28 09:59:58;;;;;;;0.73;0.50;;;;;;;;;;5046188;28;20048;-61
2023/08/28 10:02:29;;;;;;;2.28;0.82;;;;;;;;;;5036989;28;20056;-62
2023/08/28 10:04:59;;;;;;;1.60;0.80;;;;;;;;;;5048350;28;20057;-67
2023/08/28 10:07:26;;;;;;;7.60;0.47;;;;;;;;;;5039483;28;20049;-62
2023/08/28 10:09:59;;;;;;;5.15;0.88;;;;;;;;;;5022015;28;20064;-62
2023/08/28 10:12:27;;;;;;;4.38;0.68;;;;;;;;;;5045046;28;20045;-61
2023/08/28 10:14:58;;;;;;;1.77;0.68;;;;;;;;;;5043358;28;20049;-61
2023/08/28 10:17:27;;;;;;;3.05;0.50;;;;;;;;;;5046105;28;20285;-65
2023/08/28 10:19:58;;;;;;;0.65;0.50;;;;;;;;;;5045624;28;20065;-62
2023/08/28 10:22:25;;;;;;;3.22;0.70;;;;;;;;;;5044209;28;20060;-62
2023/08/28 10:24:56;;;;;;;0.57;0.30;;;;;;;;;;5043618;28;20049;-60
2023/08/28 10:27:23;;;;;;;6.63;0.50;;;;;;;;;;5045064;28;20338;-61
2023/08/28 10:29:50;;;;;;;0.47;0.40;;;;;;;;;;5049238;28;20504;-62
2023/08/28 10:32:17;;;;;;;2.97;0.50;;;;;;;;;;5043406;28;20573;-62
2023/08/28 10:34:44;;;;;;;1.95;0.50;;;;;;;;;;5042857;28;20416;-59
2023/08/28 10:37:12;;;;;;;1.20;0.60;;;;;;;;;;5043590;28;20458;-64
2023/08/28 10:39:43;;;;;;;1.77;0.43;;;;;;;;;;5029147;28;20053;-62
2023/08/28 10:42:10;;;;;;;1.35;0.65;;;;;;;;;;5038139;28;20053;-61
2023/08/28 10:44:37;;;;;;;1.23;0.68;;;;;;;;;;5037960;28;20053;-63
2023/08/28 10:47:03;;;;;;;1.73;0.70;;;;;;;;;;5038109;28;20057;-61
2023/08/28 10:49:30;;;;;;;1.83;0.80;;;;;;;;;;5038567;28;20061;-63
2023/08/28 10:52:05;;;;;;;1.63;0.65;;;;;;;;;;5039177;28;20055;-61
2023/08/28 10:54:39;;;;;;;3.55;0.70;;;;;;;;;;5039134;28;20107;-64
2023/08/28 10:57:10;;;;;;;2.95;0.40;;;;;;;;;;5040002;28;20483;-63
2023/08/28 10:59:46;;;;;;;7.82;1.00;;;;;;;;;;5037044;28;20067;-62
2023/08/28 11:02:12;;;;;;;2.35;0.60;;;;;;;;;;5035856;28;20053;-63
2023/08/28 11:04:39;;;;;;;1.25;0.50;;;;;;;;;;5019503;28;20061;-64
2023/08/28 11:07:09;;;;;;;2.00;0.80;;;;;;;;;;5042040;28;20899;-61
2023/08/28 11:09:36;;;;;;;8.98;0.85;;;;;;;;;;5036490;28;20085;-63
2023/08/28 11:12:02;;;;;;;1.80;0.65;;;;;;;;;;5038818;28;20571;-62
2023/08/28 11:14:33;;;;;;;1.27;0.40;;;;;;;;;;5040317;28;20202;-62
2023/08/28 11:17:09;;;;;;;5.78;0.80;;;;;;;;;;5039076;28;20049;-63
2023/08/28 11:19:59;;;;;;;4.93;0.80;;;;;;;;;;5039419;28;20061;-63
2023/08/28 11:22:32;;;;;;;1.85;0.60;;;;;;;;;;5026327;28;20061;-62
2023/08/28 11:25:01;;;;;;;3.85;0.63;;;;;;;;;;5039469;28;20045;-64
2023/08/28 11:27:49;;;;;;;4.20;0.60;;;;;;;;;;5038004;28;20386;-63
2023/08/28 11:30:19;;;;;;;1.20;0.52;;;;;;;;;;5034143;28;20047;-64
2023/08/28 11:32:47;;;;;;;3.75;0.73;;;;;;;;;;5037578;28;20501;-62
2023/08/28 11:35:14;;;;;;;6.68;0.65;;;;;;;;;;5041110;28;20060;-63
2023/08/28 11:37:43;;;;;;;0.82;0.47;;;;;;;;;;5039213;28;20055;-61
2023/08/28 11:40:10;;;;;;;0.70;0.57;;;;;;;;;;5033750;28;20057;-62
2023/08/28 11:42:37;;;;;;;1.45;0.43;;;;;;;;;;5034158;28;20080;-63
2023/08/28 11:45:04;;;;;;;0.43;0.28;;;;;;;;;;5035954;28;20057;-62
2023/08/28 11:47:32;;;;;;;4.97;0.70;;;;;;;;;;5036623;28;20140;-62
2023/08/28 11:50:04;;;;;;;1.60;0.55;;;;;;;;;;5030492;28;20049;-62
2023/08/28 11:52:30;;;;;;;1.23;0.65;;;;;;;;;;5036004;28;20523;-62
2023/08/28 11:55:03;;;;;;;3.25;0.60;;;;;;;;;;5032990;28;20060;-61
2023/08/28 11:57:30;;;;;;;2.80;0.88;;;;;;;;;;5020421;28;20064;-62
2023/08/28 12:00:00;;;;;;;1.00;0.45;;;;;;;;;;5037787;28;20053;-61
2023/08/28 12:02:29;;;;;;;1.17;0.93;;;;;;;;;;5036707;28;20049;-61
2023/08/28 12:04:55;;;;;;;1.58;0.50;;;;;;;;;;5045690;28;20056;-60
2023/08/28 12:07:25;;;;;;;1.70;0.90;;;;;;;;;;5040318;28;20045;-62
2023/08/28 12:09:52;;;;;;;4.10;0.90;;;;;;;;;;5039504;28;20476;-61
2023/08/28 12:12:19;;;;;;;1.15;0.50;;;;;;;;;;5022675;28;20053;-63
2023/08/28 12:14:47;;;;;;;2.92;0.70;;;;;;;;;;5039902;28;20428;-61
2023/08/28 12:17:17;;;;;;;2.20;0.50;;;;;;;;;;5039387;28;20045;-62
2023/08/28 12:19:44;;;;;;;1.45;0.52;;;;;;;;;;5042422;28;20065;-63
2023/08/28 12:22:11;;;;;;;1.90;0.63;;;;;;;;;;5040889;28;20500;-61
2023/08/28 12:24:40;;;;;;;0.63;0.32;;;;;;;;;;5042383;28;20055;-62
2023/08/28 12:27:07;;;;;;;0.85;0.40;;;;;;;;;;5043050;28;20053;-64
2023/08/28 12:29:35;;;;;;;1.42;0.75;;;;;;;;;;5043865;28;20107;-64
2023/08/28 12:32:06;;;;;;;1.00;0.60;;;;;;;;;;5039320;28;20565;-62
2023/08/28 12:34:33;;;;;;;0.85;0.57;;;;;;;;;;5037233;28;20057;-64
2023/08/28 12:37:11;;;;;;;1.08;0.50;;;;;;;;;;5044945;28;20060;-64
2023/08/28 12:39:49;;;;;;;0.43;0.40;;;;;;;;;;5043298;28;20508;-61
2023/08/28 12:42:18;;;;;;;0.50;0.50;;;;;;;;;;5038008;28;20102;-62
2023/08/28 12:44:44;;;;;;;0.70;0.40;;;;;;;;;;5044678;28;20110;-66
2023/08/28 12:47:17;;;;;;;5.57;0.50;;;;;;;;;;5042131;28;20064;-61
2023/08/28 12:49:43;;;;;;;3.72;0.60;;;;;;;;;;5040775;28;20106;-63
2023/08/28 12:52:10;;;;;;;0.88;0.40;;;;;;;;;;5042178;28;20048;-64
2023/08/28 12:54:39;;;;;;;2.10;0.40;;;;;;;;;;5040424;28;20044;-63
2023/08/28 12:57:07;;;;;;;2.78;0.50;;;;;;;;;;5040958;28;20080;-66
2023/08/28 12:59:33;;;;;;;1.25;0.50;;;;;;;;;;5042180;28;20065;-61
2023/08/28 13:02:01;;;;;;;1.58;0.40;;;;;;;;;;5047051;28;20049;-67
2023/08/28 13:04:27;;;;;;;1.48;0.70;;;;;;;;;;5024463;28;20114;-64
2023/08/28 13:06:54;;;;;;;4.32;0.90;;;;;;;;;;5039243;28;20045;-63
2023/08/28 13:09:22;;;;;;;2.55;0.28;;;;;;;;;;5023861;28;20041;-62
2023/08/28 13:11:49;;;;;;;4.75;0.50;;;;;;;;;;5041945;28;20041;-64
2023/08/28 13:14:16;;;;;;;1.55;0.40;;;;;;;;;;5038102;28;20060;-64
2023/08/28 13:16:42;;;;;;;3.88;0.70;;;;;;;;;;5039892;28;20072;-64
2023/08/28 13:19:09;;;;;;;7.30;0.85;;;;;;;;;;5044151;28;20060;-64
2023/08/28 13:21:34;;;;;;;1.20;0.50;;;;;;;;;;5040719;28;20069;-62
2023/08/28 13:24:00;;;;;;;1.67;0.50;;;;;;;;;;5040290;28;20068;-62
2023/08/28 13:26:26;;;;;;;1.92;0.52;;;;;;;;;;5039142;28;20061;-64
2023/08/28 13:28:55;;;;;;;3.05;0.60;;;;;;;;;;5038253;28;20055;-62
2023/08/28 13:31:21;;;;;;;2.47;0.57;;;;;;;;;;5018102;28;20468;-62
2023/08/28 13:33:48;;;;;;;1.85;0.45;;;;;;;;;;5034793;28;20054;-62
2023/08/28 13:36:14;;;;;;;1.05;0.30;;;;;;;;;;5040185;28;20044;-62
2023/08/28 13:38:44;;;;;;;3.38;0.70;;;;;;;;;;5038187;28;20056;-62
2023/08/28 13:41:11;;;;;;;2.15;0.50;;;;;;;;;;5042928;28;20470;-62
2023/08/28 13:43:37;;;;;;;5.13;0.50;;;;;;;;;;5047276;28;20090;-62
2023/08/28 13:46:04;;;;;;;1.45;0.50;;;;;;;;;;5043524;28;20493;-63
2023/08/28 13:48:30;;;;;;;0.63;0.40;;;;;;;;;;5045224;28;20045;-64
2023/08/28 13:50:56;;;;;;;0.40;0.22;;;;;;;;;;5044925;28;20146;-64
2023/08/28 13:53:23;;;;;;;1.33;0.52;;;;;;;;;;5044376;28;20053;-63
2023/08/28 13:55:53;;;;;;;1.80;0.88;;;;;;;;;;5049499;28;20463;-61
2023/08/28 13:58:22;;;;;;;3.10;0.80;;;;;;;;;;5037680;28;20045;-62
2023/08/28 14:01:05;;;;;;;1.88;0.65;;;;;;;;;;5045528;28;20049;-63
2023/08/28 14:03:33;;;;;;;1.08;0.28;;;;;;;;;;5045007;28;20061;-63
2023/08/28 14:06:04;;;;;;;2.03;0.63;;;;;;;;;;5047188;28;20477;-63
2023/08/28 14:08:34;;;;;;;1.52;0.57;;;;;;;;;;5047507;28;20363;-61
2023/08/28 14:11:17;;;;;;;2.97;0.55;;;;;;;;;;5043062;28;20053;-64
2023/08/28 14:13:43;;;;;;;1.35;0.30;;;;;;;;;;5047909;28;20267;-64
2023/08/28 14:16:11;;;;;;;2.85;0.60;;;;;;;;;;5034567;28;20048;-62
2023/08/28 14:19:17;;;;;;;4.82;0.52;;;;;;;;;;5034339;28;20103;-65
2023/08/28 14:22:57;;;;;;;2.05;0.60;;;;;;;;;;5043277;28;20517;-62
2023/08/28 14:26:41;;;;;;;1.48;0.50;;;;;;;;;;5048201;28;20048;-64
2023/08/28 14:30:21;;;;;;;9.02;1.02;;;;;;;;;;5044881;28;20412;-63
2023/08/28 14:34:01;;;;;;;2.35;0.47;;;;;;;;;;5037017;28;20045;-61
2023/08/28 14:37:42;;;;;;;5.30;0.70;;;;;;;;;;5042089;28;20091;-63
2023/08/28 14:41:22;;;;;;;2.30;0.80;;;;;;;;;;5039136;28;20049;-63
2023/08/28 14:45:02;;;;;;;3.85;0.75;;;;;;;;;;5042170;28;20051;-61
2023/08/28 14:48:44;;;;;;;1.65;0.43;;;;;;;;;;5042420;28;20561;-64
2023/08/28 14:52:23;;;;;;;0.93;0.40;;;;;;;;;;5043836;28;20512;-65
2023/08/28 14:56:04;;;;;;;1.73;0.50;;;;;;;;;;5043345;28;20370;-61
2023/08/28 14:59:44;;;;;;;1.52;0.57;;;;;;;;;;5044180;28;20281;-61
2023/08/28 15:03:28;;;;;;;3.15;0.63;;;;;;;;;;5041616;28;20073;-62
2023/08/28 15:07:09;;;;;;;1.30;0.60;;;;;;;;;;5034479;28;20053;-66
2023/08/28 15:10:52;;;;;;;4.97;0.57;;;;;;;;;;5044426;28;20733;-68
2023/08/28 15:14:29;;;;;;;1.45;0.40;;;;;;;;;;5050454;28;20052;-61
2023/08/28 15:18:10;;;;;;;0.93;0.40;;;;;;;;;;5041469;28;20033;-63
2023/08/28 15:21:50;;;;;;;1.35;0.40;;;;;;;;;;5043916;28;20052;-64
2023/08/28 15:25:31;;;;;;;1.08;0.50;;;;;;;;;;5046362;28;20041;-63
2023/08/28 15:29:12;;;;;;;0.70;0.65;;;;;;;;;;5040840;28;20049;-61
2023/08/28 15:32:52;;;;;;;6.45;0.85;;;;;;;;;;5043231;28;20393;-61
2023/08/28 15:36:32;;;;;;;0.63;0.47;;;;;;;;;;5029872;28;20051;-66
2023/08/28 15:40:12;;;;;;;1.60;0.60;;;;;;;;;;5041775;28;20041;-64
2023/08/28 15:43:54;;;;;;;0.40;0.40;;;;;;;;;;5038205;28;20429;-65
2023/08/28 15:47:36;;;;;;;1.42;0.70;;;;;;;;;;5038005;28;20056;-65
2023/08/28 15:51:15;;;;;;;1.73;0.73;;;;;;;;;;5035912;28;20064;-64
2023/08/28 15:54:55;;;;;;;1.38;0.47;;;;;;;;;;5045997;28;20110;-65
2023/08/28 15:58:35;;;;;;;2.40;0.60;;;;;;;;;;5037210;28;20178;-65
2023/08/28 16:02:17;;;;;;;5.75;0.80;;;;;;;;;;5039886;28;20464;-65
2023/08/28 16:05:57;;;;;;;2.58;0.75;;;;;;;;;;5034388;28;20385;-66
2023/08/28 16:09:37;;;;;;;2.20;0.70;;;;;;;;;;5040001;28;20155;-67
2023/08/28 16:13:18;;;;;;;2.35;1.00;;;;;;;;;;5036831;28;20151;-65
2023/08/28 16:16:58;;;;;;;6.40;1.20;;;;;;;;;;5040095;28;20057;-67
2023/08/28 16:20:38;;;;;;;5.10;0.90;;;;;;;;;;5035363;28;20459;-63
2023/08/28 16:24:19;;;;;;;5.22;0.93;;;;;;;;;;5037726;28;20128;-65
2023/08/28 16:27:59;;;;;;;2.92;0.82;;;;;;;;;;5046808;28;20403;-64
2023/08/28 16:31:41;;;;;;;4.68;1.20;;;;;;;;;;5037899;28;20045;-66
2023/08/28 16:35:21;;;;;;;3.35;1.20;;;;;;;;;;5032246;28;20050;-64
2023/08/28 16:39:02;;;;;;;2.30;0.90;;;;;;;;;;5028344;28;20382;-66
2023/08/28 16:42:44;;;;;;;1.90;0.88;;;;;;;;;;5044012;28;20045;-65
2023/08/28 16:46:24;;;;;;;2.47;0.90;;;;;;;;;;5038189;28;20049;-67
2023/08/28 16:50:05;;;;;;;8.15;0.90;;;;;;;;;;5042378;28;20056;-66
2023/08/28 16:53:45;;;;;;;5.75;1.33;;;;;;;;;;5037828;28;20045;-66
2023/08/28 16:57:25;;;;;;;3.88;1.08;;;;;;;;;;5037541;28;20057;-66
2023/08/28 17:01:07;;;;;;;2.05;1.00;;;;;;;;;;5035755;28;20050;-65
2023/08/28 17:04:48;;;;;;;4.78;1.10;;;;;;;;;;5044637;28;20547;-65
2023/08/28 17:08:29;;;;;;;5.65;1.30;;;;;;;;;;5037040;28;20041;-65
2023/08/28 17:12:13;;;;;;;5.57;1.33;;;;;;;;;;5042963;28;20049;-65
2023/08/28 17:15:55;;;;;;;4.35;1.42;;;;;;;;;;5048208;28;20044;-67
2023/08/28 17:19:34;;;;;;;4.22;1.30;;;;;;;;;;5049304;28;20088;-66
2023/08/28 17:23:16;;;;;;;7.57;1.17;;;;;;;;;;5042281;28;20164;-67
2023/08/28 17:26:55;;;;;;;5.57;1.17;;;;;;;;;;5046243;28;20077;-65
2023/08/28 17:30:35;;;;;;;4.65;0.90;;;;;;;;;;5047943;28;20047;-63
2023/08/28 17:34:15;;;;;;;3.47;0.80;;;;;;;;;;5038195;28;20049;-63
2023/08/28 17:37:55;;;;;;;4.63;1.30;;;;;;;;;;5043766;28;20492;-63
2023/08/28 17:41:36;;;;;;;2.75;1.13;;;;;;;;;;5035937;28;20057;-65
2023/08/28 17:45:18;;;;;;;1.98;0.80;;;;;;;;;;5041504;28;20448;-63
2023/08/28 17:48:58;;;;;;;6.55;1.40;;;;;;;;;;5042036;28;20049;-65
2023/08/28 17:52:38;;;;;;;5.85;2.40;;;;;;;;;;5045943;28;20045;-68
2023/08/28 17:56:19;;;;;;;13.15;5.13;;;;;;;;;;5044087;28;20046;-64
2023/08/28 17:59:59;;;;;;;6.65;1.60;;;;;;;;;;5045085;28;20102;-67
2023/08/28 18:03:39;;;;;;;6.55;1.48;;;;;;;;;;5041420;28;20052;-63
2023/08/28 18:07:23;;;;;;;3.17;1.00;;;;;;;;;;5042443;28;20061;-62
2023/08/28 18:11:00;;;;;;;2.17;1.10;;;;;;;;;;5045493;28;20195;-63
2023/08/28 18:14:40;;;;;;;1.77;0.95;;;;;;;;;;5037441;28;20049;-64